sensor_id;sensor_type;location;lat;lon;timestamp;P1;durP1;ratioP1;P2;durP2;ratioP2
44850;SDS011;30583;48.714;9.386;2023-04-15T00:00:28;11.85;;;5.45;;
44850;SDS011;30583;48.714;9.386;2023-04-15T00:02:53;9.45;;;5.15;;
44850;SDS011;30583;48.714;9.386;2023-04-15T00:05:19;8.95;;;5.20;;
44850;SDS011;30583;48.714;9.386;2023-04-15T00:07:45;10.77;;;5.28;;
44850;SDS011;30583;48.714;9.386;2023-04-15T00:10:12;13.10;;;6.40;;
44850;SDS011;30583;48.714;9.386;2023-04-15T00:12:38;9.07;;;5.40;;
44850;SDS011;30583;48.714;9.386;2023-04-15T00:15:05;10.25;;;5.15;;
44850;SDS011;30583;48.714;9.386;2023-04-15T00:17:32;9.27;;;5.05;;
44850;SDS011;30583;48.714;9.386;2023-04-15T00:19:58;10.50;;;4.53;;
44850;SDS011;30583;48.714;9.386;2023-04-15T00:22:24;7.35;;;4.65;;
44850;SDS011;30583;48.714;9.386;2023-04-15T00:24:51;10.35;;;4.38;;
44850;SDS011;30583;48.714;9.386;2023-04-15T00:27:17;10.70;;;4.60;;
44850;SDS011;30583;48.714;9.386;2023-04-15T00:29:43;8.82;;;3.72;;
44850;SDS011;30583;48.714;9.386;2023-04-15T00:32:09;11.18;;;4.68;;
44850;SDS011;30583;48.714;9.386;2023-04-15T00:34:34;9.07;;;4.40;;
44850;SDS011;30583;48.714;9.386;2023-04-15T00:37:00;9.40;;;4.57;;
44850;SDS011;30583;48.714;9.386;2023-04-15T00:39:26;11.93;;;4.75;;
44850;SDS011;30583;48.714;9.386;2023-04-15T00:41:52;7.60;;;5.00;;
44850;SDS011;30583;48.714;9.386;2023-04-15T00:44:18;10.15;;;5.70;;
44850;SDS011;30583;48.714;9.386;2023-04-15T00:46:44;8.93;;;5.20;;
44850;SDS011;30583;48.714;9.386;2023-04-15T00:49:10;11.32;;;5.20;;
44850;SDS011;30583;48.714;9.386;2023-04-15T00:51:37;12.45;;;5.10;;
44850;SDS011;30583;48.714;9.386;2023-04-15T00:54:03;10.35;;;5.80;;
44850;SDS011;30583;48.714;9.386;2023-04-15T00:56:30;10.50;;;5.38;;
44850;SDS011;30583;48.714;9.386;2023-04-15T00:58:58;9.98;;;5.45;;
44850;SDS011;30583;48.714;9.386;2023-04-15T01:01:25;10.65;;;5.35;;
44850;SDS011;30583;48.714;9.386;2023-04-15T01:03:51;9.32;;;4.75;;
44850;SDS011;30583;48.714;9.386;2023-04-15T01:06:17;10.50;;;5.53;;
44850;SDS011;30583;48.714;9.386;2023-04-15T01:08:43;10.70;;;5.32;;
44850;SDS011;30583;48.714;9.386;2023-04-15T01:11:09;8.02;;;5.13;;
44850;SDS011;30583;48.714;9.386;2023-04-15T01:13:37;10.82;;;5.00;;
44850;SDS011;30583;48.714;9.386;2023-04-15T01:16:03;8.85;;;4.65;;
44850;SDS011;30583;48.714;9.386;2023-04-15T01:18:29;9.68;;;4.47;;
44850;SDS011;30583;48.714;9.386;2023-04-15T01:20:55;7.95;;;4.70;;
44850;SDS011;30583;48.714;9.386;2023-04-15T01:23:21;9.52;;;4.50;;
44850;SDS011;30583;48.714;9.386;2023-04-15T01:25:48;13.20;;;5.35;;
44850;SDS011;30583;48.714;9.386;2023-04-15T01:28:14;9.10;;;4.40;;
44850;SDS011;30583;48.714;9.386;2023-04-15T01:30:40;10.20;;;4.75;;
44850;SDS011;30583;48.714;9.386;2023-04-15T01:33:06;9.82;;;6.13;;
44850;SDS011;30583;48.714;9.386;2023-04-15T01:35:31;9.98;;;6.25;;
44850;SDS011;30583;48.714;9.386;2023-04-15T01:38:06;15.52;;;8.60;;
44850;SDS011;30583;48.714;9.386;2023-04-15T01:40:33;17.85;;;10.30;;
44850;SDS011;30583;48.714;9.386;2023-04-15T01:42:59;11.65;;;6.15;;
44850;SDS011;30583;48.714;9.386;2023-04-15T01:45:26;9.40;;;4.78;;
44850;SDS011;30583;48.714;9.386;2023-04-15T01:47:52;7.65;;;4.65;;
44850;SDS011;30583;48.714;9.386;2023-04-15T01:50:18;13.20;;;6.03;;
44850;SDS011;30583;48.714;9.386;2023-04-15T01:52:44;17.65;;;8.98;;
44850;SDS011;30583;48.714;9.386;2023-04-15T01:55:11;22.35;;;10.48;;
44850;SDS011;30583;48.714;9.386;2023-04-15T01:57:36;16.30;;;7.55;;
44850;SDS011;30583;48.714;9.386;2023-04-15T02:00:02;8.30;;;4.95;;
44850;SDS011;30583;48.714;9.386;2023-04-15T02:02:28;11.32;;;4.90;;
44850;SDS011;30583;48.714;9.386;2023-04-15T02:04:53;15.38;;;7.28;;
44850;SDS011;30583;48.714;9.386;2023-04-15T02:07:19;15.80;;;8.18;;
44850;SDS011;30583;48.714;9.386;2023-04-15T02:09:45;18.90;;;8.85;;
44850;SDS011;30583;48.714;9.386;2023-04-15T02:12:11;20.40;;;9.23;;
44850;SDS011;30583;48.714;9.386;2023-04-15T02:14:37;11.93;;;6.75;;
44850;SDS011;30583;48.714;9.386;2023-04-15T02:17:03;11.73;;;5.65;;
44850;SDS011;30583;48.714;9.386;2023-04-15T02:19:32;12.38;;;6.05;;
44850;SDS011;30583;48.714;9.386;2023-04-15T02:21:58;16.48;;;7.57;;
44850;SDS011;30583;48.714;9.386;2023-04-15T02:24:25;15.45;;;8.23;;
44850;SDS011;30583;48.714;9.386;2023-04-15T02:26:51;27.13;;;13.43;;
44850;SDS011;30583;48.714;9.386;2023-04-15T02:29:17;30.65;;;14.05;;
44850;SDS011;30583;48.714;9.386;2023-04-15T02:31:42;27.02;;;13.45;;
44850;SDS011;30583;48.714;9.386;2023-04-15T02:34:09;22.33;;;11.43;;
44850;SDS011;30583;48.714;9.386;2023-04-15T02:36:34;20.10;;;10.00;;
44850;SDS011;30583;48.714;9.386;2023-04-15T02:39:00;27.70;;;13.27;;
44850;SDS011;30583;48.714;9.386;2023-04-15T02:41:26;23.77;;;12.85;;
44850;SDS011;30583;48.714;9.386;2023-04-15T02:43:54;20.60;;;10.93;;
44850;SDS011;30583;48.714;9.386;2023-04-15T02:46:19;12.20;;;6.22;;
44850;SDS011;30583;48.714;9.386;2023-04-15T02:48:46;6.57;;;4.38;;
44850;SDS011;30583;48.714;9.386;2023-04-15T02:51:21;8.48;;;4.65;;
44850;SDS011;30583;48.714;9.386;2023-04-15T02:53:47;10.45;;;5.00;;
44850;SDS011;30583;48.714;9.386;2023-04-15T02:56:14;8.60;;;4.72;;
44850;SDS011;30583;48.714;9.386;2023-04-15T02:58:42;9.82;;;4.93;;
44850;SDS011;30583;48.714;9.386;2023-04-15T03:01:09;8.98;;;4.72;;
44850;SDS011;30583;48.714;9.386;2023-04-15T03:03:35;15.70;;;6.03;;
44850;SDS011;30583;48.714;9.386;2023-04-15T03:06:01;16.88;;;6.97;;
44850;SDS011;30583;48.714;9.386;2023-04-15T03:08:26;14.43;;;6.88;;
44850;SDS011;30583;48.714;9.386;2023-04-15T03:10:52;15.10;;;6.53;;
44850;SDS011;30583;48.714;9.386;2023-04-15T03:13:18;12.02;;;5.68;;
44850;SDS011;30583;48.714;9.386;2023-04-15T03:15:47;15.90;;;7.82;;
44850;SDS011;30583;48.714;9.386;2023-04-15T03:18:13;25.40;;;13.25;;
44850;SDS011;30583;48.714;9.386;2023-04-15T03:20:38;27.38;;;14.27;;
44850;SDS011;30583;48.714;9.386;2023-04-15T03:23:04;18.10;;;8.38;;
44850;SDS011;30583;48.714;9.386;2023-04-15T03:25:30;15.30;;;6.60;;
44850;SDS011;30583;48.714;9.386;2023-04-15T03:27:56;17.13;;;7.40;;
44850;SDS011;30583;48.714;9.386;2023-04-15T03:30:22;13.68;;;6.10;;
44850;SDS011;30583;48.714;9.386;2023-04-15T03:32:47;13.23;;;6.00;;
44850;SDS011;30583;48.714;9.386;2023-04-15T03:35:13;11.63;;;4.93;;
44850;SDS011;30583;48.714;9.386;2023-04-15T03:37:39;13.23;;;5.82;;
44850;SDS011;30583;48.714;9.386;2023-04-15T03:40:04;8.82;;;5.05;;
44850;SDS011;30583;48.714;9.386;2023-04-15T03:42:31;10.45;;;5.00;;
44850;SDS011;30583;48.714;9.386;2023-04-15T03:44:56;11.80;;;5.10;;
44850;SDS011;30583;48.714;9.386;2023-04-15T03:47:22;13.50;;;4.55;;
44850;SDS011;30583;48.714;9.386;2023-04-15T03:49:47;13.48;;;4.65;;
44850;SDS011;30583;48.714;9.386;2023-04-15T03:52:13;8.80;;;5.05;;
44850;SDS011;30583;48.714;9.386;2023-04-15T03:54:38;12.30;;;4.90;;
44850;SDS011;30583;48.714;9.386;2023-04-15T03:57:04;8.05;;;4.57;;
44850;SDS011;30583;48.714;9.386;2023-04-15T03:59:30;7.88;;;4.47;;
44850;SDS011;30583;48.714;9.386;2023-04-15T04:01:56;8.88;;;4.60;;
44850;SDS011;30583;48.714;9.386;2023-04-15T04:04:21;7.35;;;4.35;;
44850;SDS011;30583;48.714;9.386;2023-04-15T04:06:47;9.38;;;4.72;;
44850;SDS011;30583;48.714;9.386;2023-04-15T04:09:12;8.55;;;4.50;;
44850;SDS011;30583;48.714;9.386;2023-04-15T04:11:38;12.68;;;4.97;;
44850;SDS011;30583;48.714;9.386;2023-04-15T04:14:03;11.60;;;5.43;;
44850;SDS011;30583;48.714;9.386;2023-04-15T04:16:29;10.05;;;4.85;;
44850;SDS011;30583;48.714;9.386;2023-04-15T04:18:55;10.52;;;5.50;;
44850;SDS011;30583;48.714;9.386;2023-04-15T04:21:20;9.57;;;5.32;;
44850;SDS011;30583;48.714;9.386;2023-04-15T04:23:46;10.40;;;5.60;;
44850;SDS011;30583;48.714;9.386;2023-04-15T04:26:11;14.40;;;5.53;;
44850;SDS011;30583;48.714;9.386;2023-04-15T04:28:37;13.52;;;6.35;;
44850;SDS011;30583;48.714;9.386;2023-04-15T04:31:05;10.00;;;5.63;;
44850;SDS011;30583;48.714;9.386;2023-04-15T04:33:31;9.82;;;5.65;;
44850;SDS011;30583;48.714;9.386;2023-04-15T04:35:57;11.95;;;4.93;;
44850;SDS011;30583;48.714;9.386;2023-04-15T04:38:22;9.55;;;4.88;;
44850;SDS011;30583;48.714;9.386;2023-04-15T04:40:48;8.18;;;4.18;;
44850;SDS011;30583;48.714;9.386;2023-04-15T04:43:14;7.70;;;4.40;;
44850;SDS011;30583;48.714;9.386;2023-04-15T04:45:40;8.38;;;4.43;;
44850;SDS011;30583;48.714;9.386;2023-04-15T04:48:05;11.73;;;5.15;;
44850;SDS011;30583;48.714;9.386;2023-04-15T04:50:33;9.68;;;4.95;;
44850;SDS011;30583;48.714;9.386;2023-04-15T04:52:59;10.15;;;4.75;;
44850;SDS011;30583;48.714;9.386;2023-04-15T04:55:25;8.73;;;4.82;;
44850;SDS011;30583;48.714;9.386;2023-04-15T04:57:51;8.27;;;5.25;;
44850;SDS011;30583;48.714;9.386;2023-04-15T05:00:16;15.43;;;5.70;;
44850;SDS011;30583;48.714;9.386;2023-04-15T05:02:43;11.98;;;6.35;;
44850;SDS011;30583;48.714;9.386;2023-04-15T05:05:09;15.38;;;8.95;;
44850;SDS011;30583;48.714;9.386;2023-04-15T05:07:35;13.63;;;7.30;;
44850;SDS011;30583;48.714;9.386;2023-04-15T05:10:01;17.35;;;9.25;;
44850;SDS011;30583;48.714;9.386;2023-04-15T05:12:27;14.55;;;7.80;;
44850;SDS011;30583;48.714;9.386;2023-04-15T05:14:53;12.25;;;6.57;;
44850;SDS011;30583;48.714;9.386;2023-04-15T05:17:18;10.15;;;5.65;;
44850;SDS011;30583;48.714;9.386;2023-04-15T05:19:44;10.55;;;5.57;;
44850;SDS011;30583;48.714;9.386;2023-04-15T05:22:10;9.68;;;5.80;;
44850;SDS011;30583;48.714;9.386;2023-04-15T05:24:35;10.02;;;4.95;;
44850;SDS011;30583;48.714;9.386;2023-04-15T05:27:01;12.57;;;6.45;;
44850;SDS011;30583;48.714;9.386;2023-04-15T05:29:27;12.93;;;7.10;;
44850;SDS011;30583;48.714;9.386;2023-04-15T05:31:53;11.98;;;8.05;;
44850;SDS011;30583;48.714;9.386;2023-04-15T05:34:18;11.82;;;7.57;;
44850;SDS011;30583;48.714;9.386;2023-04-15T05:36:44;8.98;;;5.60;;
44850;SDS011;30583;48.714;9.386;2023-04-15T05:39:10;9.50;;;4.90;;
44850;SDS011;30583;48.714;9.386;2023-04-15T05:41:35;7.88;;;4.95;;
44850;SDS011;30583;48.714;9.386;2023-04-15T05:44:02;9.95;;;5.05;;
44850;SDS011;30583;48.714;9.386;2023-04-15T05:46:27;8.43;;;5.07;;
44850;SDS011;30583;48.714;9.386;2023-04-15T05:48:53;9.63;;;5.72;;
44850;SDS011;30583;48.714;9.386;2023-04-15T05:51:18;9.23;;;5.15;;
44850;SDS011;30583;48.714;9.386;2023-04-15T05:53:44;13.43;;;5.00;;
44850;SDS011;30583;48.714;9.386;2023-04-15T05:56:10;9.00;;;4.95;;
44850;SDS011;30583;48.714;9.386;2023-04-15T05:58:36;10.18;;;4.20;;
44850;SDS011;30583;48.714;9.386;2023-04-15T06:01:02;10.88;;;4.40;;
44850;SDS011;30583;48.714;9.386;2023-04-15T06:03:28;10.02;;;4.70;;
44850;SDS011;30583;48.714;9.386;2023-04-15T06:05:54;12.38;;;5.30;;
44850;SDS011;30583;48.714;9.386;2023-04-15T06:08:20;8.30;;;4.22;;
44850;SDS011;30583;48.714;9.386;2023-04-15T06:10:46;8.13;;;4.13;;
44850;SDS011;30583;48.714;9.386;2023-04-15T06:13:11;6.93;;;3.80;;
44850;SDS011;30583;48.714;9.386;2023-04-15T06:15:37;10.30;;;4.20;;
44850;SDS011;30583;48.714;9.386;2023-04-15T06:18:03;9.10;;;4.68;;
44850;SDS011;30583;48.714;9.386;2023-04-15T06:20:29;11.57;;;4.97;;
44850;SDS011;30583;48.714;9.386;2023-04-15T06:22:54;8.07;;;4.10;;
44850;SDS011;30583;48.714;9.386;2023-04-15T06:25:21;6.93;;;3.97;;
44850;SDS011;30583;48.714;9.386;2023-04-15T06:27:47;8.23;;;4.22;;
44850;SDS011;30583;48.714;9.386;2023-04-15T06:30:12;8.85;;;4.82;;
44850;SDS011;30583;48.714;9.386;2023-04-15T06:32:38;9.38;;;4.25;;
44850;SDS011;30583;48.714;9.386;2023-04-15T06:35:04;10.35;;;4.93;;
44850;SDS011;30583;48.714;9.386;2023-04-15T06:37:29;9.27;;;4.80;;
44850;SDS011;30583;48.714;9.386;2023-04-15T06:39:56;9.25;;;4.95;;
44850;SDS011;30583;48.714;9.386;2023-04-15T06:42:22;8.55;;;4.55;;
44850;SDS011;30583;48.714;9.386;2023-04-15T06:44:47;9.38;;;4.22;;
44850;SDS011;30583;48.714;9.386;2023-04-15T06:47:13;7.85;;;4.10;;
44850;SDS011;30583;48.714;9.386;2023-04-15T06:49:39;9.02;;;5.35;;
44850;SDS011;30583;48.714;9.386;2023-04-15T06:52:05;13.82;;;7.60;;
44850;SDS011;30583;48.714;9.386;2023-04-15T06:54:30;12.20;;;6.13;;
44850;SDS011;30583;48.714;9.386;2023-04-15T06:56:56;9.75;;;5.00;;
44850;SDS011;30583;48.714;9.386;2023-04-15T06:59:22;10.15;;;5.18;;
44850;SDS011;30583;48.714;9.386;2023-04-15T07:01:48;7.45;;;4.50;;
44850;SDS011;30583;48.714;9.386;2023-04-15T07:04:13;8.75;;;4.07;;
44850;SDS011;30583;48.714;9.386;2023-04-15T07:06:39;8.65;;;4.97;;
44850;SDS011;30583;48.714;9.386;2023-04-15T07:09:05;6.85;;;1.23;;
44850;SDS011;30583;48.714;9.386;2023-04-15T07:11:31;7.32;;;2.80;;
44850;SDS011;30583;48.714;9.386;2023-04-15T07:13:57;5.38;;;2.90;;
44850;SDS011;30583;48.714;9.386;2023-04-15T07:16:22;6.57;;;3.30;;
44850;SDS011;30583;48.714;9.386;2023-04-15T07:18:48;9.18;;;3.78;;
44850;SDS011;30583;48.714;9.386;2023-04-15T07:21:14;8.70;;;4.07;;
44850;SDS011;30583;48.714;9.386;2023-04-15T07:23:41;8.55;;;4.38;;
44850;SDS011;30583;48.714;9.386;2023-04-15T07:26:07;9.82;;;4.35;;
44850;SDS011;30583;48.714;9.386;2023-04-15T07:28:32;9.10;;;4.30;;
44850;SDS011;30583;48.714;9.386;2023-04-15T07:30:58;8.40;;;4.55;;
44850;SDS011;30583;48.714;9.386;2023-04-15T07:33:24;8.32;;;4.50;;
44850;SDS011;30583;48.714;9.386;2023-04-15T07:35:50;11.60;;;4.78;;
44850;SDS011;30583;48.714;9.386;2023-04-15T07:38:15;9.15;;;4.68;;
44850;SDS011;30583;48.714;9.386;2023-04-15T07:40:41;11.52;;;5.13;;
44850;SDS011;30583;48.714;9.386;2023-04-15T07:43:07;12.15;;;4.68;;
44850;SDS011;30583;48.714;9.386;2023-04-15T07:45:32;9.40;;;4.93;;
44850;SDS011;30583;48.714;9.386;2023-04-15T07:47:59;10.43;;;4.47;;
44850;SDS011;30583;48.714;9.386;2023-04-15T07:50:25;10.23;;;4.88;;
44850;SDS011;30583;48.714;9.386;2023-04-15T07:52:51;8.93;;;4.57;;
44850;SDS011;30583;48.714;9.386;2023-04-15T07:55:17;10.15;;;4.80;;
44850;SDS011;30583;48.714;9.386;2023-04-15T07:57:45;9.50;;;4.85;;
44850;SDS011;30583;48.714;9.386;2023-04-15T08:00:11;13.27;;;4.57;;
44850;SDS011;30583;48.714;9.386;2023-04-15T08:02:37;9.13;;;4.68;;
44850;SDS011;30583;48.714;9.386;2023-04-15T08:05:03;6.70;;;4.47;;
44850;SDS011;30583;48.714;9.386;2023-04-15T08:07:30;18.52;;;5.97;;
44850;SDS011;30583;48.714;9.386;2023-04-15T08:09:55;8.00;;;4.78;;
44850;SDS011;30583;48.714;9.386;2023-04-15T08:12:21;8.38;;;4.53;;
44850;SDS011;30583;48.714;9.386;2023-04-15T08:14:49;9.07;;;4.53;;
44850;SDS011;30583;48.714;9.386;2023-04-15T08:17:15;7.90;;;4.65;;
44850;SDS011;30583;48.714;9.386;2023-04-15T08:19:40;7.50;;;4.28;;
44850;SDS011;30583;48.714;9.386;2023-04-15T08:22:06;9.45;;;5.15;;
44850;SDS011;30583;48.714;9.386;2023-04-15T08:24:32;7.43;;;4.15;;
44850;SDS011;30583;48.714;9.386;2023-04-15T08:26:58;9.43;;;4.43;;
44850;SDS011;30583;48.714;9.386;2023-04-15T08:29:24;11.32;;;4.00;;
44850;SDS011;30583;48.714;9.386;2023-04-15T08:31:49;10.23;;;4.68;;
44850;SDS011;30583;48.714;9.386;2023-04-15T08:34:15;9.02;;;3.88;;
44850;SDS011;30583;48.714;9.386;2023-04-15T08:36:42;10.60;;;4.35;;
44850;SDS011;30583;48.714;9.386;2023-04-15T08:39:07;7.88;;;4.40;;
44850;SDS011;30583;48.714;9.386;2023-04-15T08:41:33;9.00;;;4.00;;
44850;SDS011;30583;48.714;9.386;2023-04-15T08:44:15;8.77;;;4.00;;
44850;SDS011;30583;48.714;9.386;2023-04-15T08:46:42;8.50;;;4.80;;
44850;SDS011;30583;48.714;9.386;2023-04-15T08:49:11;8.48;;;3.92;;
44850;SDS011;30583;48.714;9.386;2023-04-15T08:51:40;7.68;;;4.20;;
44850;SDS011;30583;48.714;9.386;2023-04-15T08:54:07;10.38;;;4.35;;
44850;SDS011;30583;48.714;9.386;2023-04-15T08:56:33;8.65;;;4.00;;
44850;SDS011;30583;48.714;9.386;2023-04-15T08:58:59;6.68;;;2.40;;
44850;SDS011;30583;48.714;9.386;2023-04-15T09:01:26;5.57;;;2.22;;
44850;SDS011;30583;48.714;9.386;2023-04-15T09:03:52;9.27;;;2.80;;
44850;SDS011;30583;48.714;9.386;2023-04-15T09:06:19;8.85;;;2.60;;
44850;SDS011;30583;48.714;9.386;2023-04-15T09:08:45;8.45;;;3.33;;
44850;SDS011;30583;48.714;9.386;2023-04-15T09:11:11;8.45;;;2.88;;
44850;SDS011;30583;48.714;9.386;2023-04-15T09:13:37;8.45;;;2.97;;
44850;SDS011;30583;48.714;9.386;2023-04-15T09:16:04;9.05;;;4.45;;
44850;SDS011;30583;48.714;9.386;2023-04-15T09:18:31;8.80;;;3.47;;
44850;SDS011;30583;48.714;9.386;2023-04-15T09:21:14;9.77;;;3.92;;
44850;SDS011;30583;48.714;9.386;2023-04-15T09:23:56;6.45;;;3.53;;
44850;SDS011;30583;48.714;9.386;2023-04-15T09:26:36;8.45;;;3.28;;
44850;SDS011;30583;48.714;9.386;2023-04-15T09:29:07;17.05;;;7.07;;
44850;SDS011;30583;48.714;9.386;2023-04-15T09:31:37;16.63;;;4.88;;
44850;SDS011;30583;48.714;9.386;2023-04-15T09:34:03;17.58;;;4.40;;
44850;SDS011;30583;48.714;9.386;2023-04-15T09:36:35;10.70;;;3.47;;
44850;SDS011;30583;48.714;9.386;2023-04-15T09:39:13;9.63;;;3.17;;
44850;SDS011;30583;48.714;9.386;2023-04-15T09:41:39;8.07;;;3.45;;
44850;SDS011;30583;48.714;9.386;2023-04-15T09:44:05;7.55;;;3.63;;
44850;SDS011;30583;48.714;9.386;2023-04-15T09:46:41;9.35;;;3.65;;
44850;SDS011;30583;48.714;9.386;2023-04-15T09:49:07;7.22;;;3.38;;
44850;SDS011;30583;48.714;9.386;2023-04-15T09:51:34;6.18;;;3.17;;
44850;SDS011;30583;48.714;9.386;2023-04-15T09:54:00;4.45;;;2.45;;
44850;SDS011;30583;48.714;9.386;2023-04-15T09:56:31;4.70;;;2.10;;
44850;SDS011;30583;48.714;9.386;2023-04-15T09:59:06;7.25;;;3.35;;
44850;SDS011;30583;48.714;9.386;2023-04-15T10:01:32;6.90;;;2.90;;
44850;SDS011;30583;48.714;9.386;2023-04-15T10:03:58;6.88;;;2.47;;
44850;SDS011;30583;48.714;9.386;2023-04-15T10:06:27;6.00;;;2.10;;
44850;SDS011;30583;48.714;9.386;2023-04-15T10:08:54;6.22;;;2.72;;
44850;SDS011;30583;48.714;9.386;2023-04-15T10:11:23;10.18;;;2.22;;
44850;SDS011;30583;48.714;9.386;2023-04-15T10:13:52;4.85;;;2.25;;
44850;SDS011;30583;48.714;9.386;2023-04-15T10:16:20;4.63;;;2.03;;
44850;SDS011;30583;48.714;9.386;2023-04-15T10:18:47;3.85;;;1.63;;
44850;SDS011;30583;48.714;9.386;2023-04-15T10:21:18;4.68;;;1.92;;
44850;SDS011;30583;48.714;9.386;2023-04-15T10:23:46;6.93;;;2.25;;
44850;SDS011;30583;48.714;9.386;2023-04-15T10:26:12;4.65;;;1.88;;
44850;SDS011;30583;48.714;9.386;2023-04-15T10:28:39;7.03;;;3.47;;
44850;SDS011;30583;48.714;9.386;2023-04-15T10:31:05;9.00;;;4.75;;
44850;SDS011;30583;48.714;9.386;2023-04-15T10:33:32;5.18;;;2.83;;
44850;SDS011;30583;48.714;9.386;2023-04-15T10:35:59;8.10;;;2.65;;
44850;SDS011;30583;48.714;9.386;2023-04-15T10:38:36;6.53;;;2.25;;
44850;SDS011;30583;48.714;9.386;2023-04-15T10:41:13;7.45;;;2.33;;
44850;SDS011;30583;48.714;9.386;2023-04-15T10:46:20;8.48;;;2.85;;
44850;SDS011;30583;48.714;9.386;2023-04-15T10:48:52;5.82;;;2.22;;
44850;SDS011;30583;48.714;9.386;2023-04-15T10:51:28;7.20;;;3.00;;
44850;SDS011;30583;48.714;9.386;2023-04-15T10:53:58;8.20;;;3.70;;
44850;SDS011;30583;48.714;9.386;2023-04-15T10:56:24;6.55;;;3.05;;
44850;SDS011;30583;48.714;9.386;2023-04-15T10:58:50;6.63;;;2.88;;
44850;SDS011;30583;48.714;9.386;2023-04-15T11:01:15;7.97;;;3.05;;
44850;SDS011;30583;48.714;9.386;2023-04-15T11:03:45;6.90;;;3.05;;
44850;SDS011;30583;48.714;9.386;2023-04-15T11:06:10;7.78;;;2.63;;
44850;SDS011;30583;48.714;9.386;2023-04-15T11:08:52;5.60;;;2.70;;
44850;SDS011;30583;48.714;9.386;2023-04-15T11:11:33;8.00;;;2.83;;
44850;SDS011;30583;48.714;9.386;2023-04-15T11:14:27;8.77;;;3.13;;
44850;SDS011;30583;48.714;9.386;2023-04-15T11:16:52;10.18;;;3.35;;
44850;SDS011;30583;48.714;9.386;2023-04-15T11:19:18;8.48;;;2.95;;
44850;SDS011;30583;48.714;9.386;2023-04-15T11:21:44;7.82;;;2.88;;
44850;SDS011;30583;48.714;9.386;2023-04-15T11:24:09;5.15;;;2.95;;
44850;SDS011;30583;48.714;9.386;2023-04-15T11:26:35;7.18;;;3.00;;
44850;SDS011;30583;48.714;9.386;2023-04-15T11:29:01;8.57;;;3.38;;
44850;SDS011;30583;48.714;9.386;2023-04-15T11:31:27;6.97;;;3.30;;
44850;SDS011;30583;48.714;9.386;2023-04-15T11:33:59;13.70;;;3.30;;
44850;SDS011;30583;48.714;9.386;2023-04-15T11:36:26;7.50;;;3.17;;
44850;SDS011;30583;48.714;9.386;2023-04-15T11:38:53;12.48;;;3.40;;
44850;SDS011;30583;48.714;9.386;2023-04-15T11:41:20;6.03;;;3.42;;
44850;SDS011;30583;48.714;9.386;2023-04-15T11:43:46;7.53;;;3.78;;
44850;SDS011;30583;48.714;9.386;2023-04-15T11:46:12;4.72;;;3.30;;
44850;SDS011;30583;48.714;9.386;2023-04-15T11:48:40;23.73;;;11.55;;
44850;SDS011;30583;48.714;9.386;2023-04-15T11:51:07;6.93;;;3.38;;
44850;SDS011;30583;48.714;9.386;2023-04-15T11:58:45;12.37;;;4.43;;
44850;SDS011;30583;48.714;9.386;2023-04-15T12:01:11;13.57;;;4.45;;
44850;SDS011;30583;48.714;9.386;2023-04-15T12:03:46;6.25;;;3.25;;
44850;SDS011;30583;48.714;9.386;2023-04-15T12:06:19;11.90;;;3.67;;
44850;SDS011;30583;48.714;9.386;2023-04-15T12:11:20;6.00;;;2.80;;
44850;SDS011;30583;48.714;9.386;2023-04-15T12:13:53;8.73;;;2.78;;
44850;SDS011;30583;48.714;9.386;2023-04-15T12:16:20;8.93;;;3.80;;
44850;SDS011;30583;48.714;9.386;2023-04-15T12:18:53;12.32;;;6.40;;
44850;SDS011;30583;48.714;9.386;2023-04-15T12:21:21;12.02;;;5.82;;
44850;SDS011;30583;48.714;9.386;2023-04-15T12:23:49;13.05;;;4.97;;
44850;SDS011;30583;48.714;9.386;2023-04-15T12:26:16;5.18;;;3.10;;
44850;SDS011;30583;48.714;9.386;2023-04-15T12:28:43;7.10;;;3.58;;
44850;SDS011;30583;48.714;9.386;2023-04-15T12:31:09;15.75;;;8.25;;
44850;SDS011;30583;48.714;9.386;2023-04-15T12:33:35;13.27;;;6.65;;
44850;SDS011;30583;48.714;9.386;2023-04-15T12:36:02;8.45;;;4.00;;
44850;SDS011;30583;48.714;9.386;2023-04-15T12:38:28;9.65;;;4.93;;
44850;SDS011;30583;48.714;9.386;2023-04-15T12:40:55;9.02;;;5.05;;
44850;SDS011;30583;48.714;9.386;2023-04-15T12:43:22;6.05;;;2.97;;
44850;SDS011;30583;48.714;9.386;2023-04-15T12:45:48;4.45;;;2.13;;
44850;SDS011;30583;48.714;9.386;2023-04-15T12:48:13;6.00;;;2.50;;
44850;SDS011;30583;48.714;9.386;2023-04-15T12:50:39;7.30;;;2.75;;
44850;SDS011;30583;48.714;9.386;2023-04-15T12:53:05;5.03;;;2.50;;
44850;SDS011;30583;48.714;9.386;2023-04-15T12:55:31;9.52;;;3.20;;
44850;SDS011;30583;48.714;9.386;2023-04-15T12:57:56;6.60;;;3.75;;
44850;SDS011;30583;48.714;9.386;2023-04-15T13:00:22;6.82;;;4.22;;
44850;SDS011;30583;48.714;9.386;2023-04-15T13:02:48;4.63;;;2.65;;
44850;SDS011;30583;48.714;9.386;2023-04-15T13:05:13;4.35;;;2.75;;
44850;SDS011;30583;48.714;9.386;2023-04-15T13:07:40;5.80;;;2.67;;
44850;SDS011;30583;48.714;9.386;2023-04-15T13:10:06;7.03;;;2.70;;
44850;SDS011;30583;48.714;9.386;2023-04-15T13:12:32;7.80;;;3.10;;
44850;SDS011;30583;48.714;9.386;2023-04-15T13:15:01;4.60;;;2.60;;
44850;SDS011;30583;48.714;9.386;2023-04-15T13:17:30;5.18;;;2.85;;
44850;SDS011;30583;48.714;9.386;2023-04-15T13:19:55;4.22;;;2.38;;
44850;SDS011;30583;48.714;9.386;2023-04-15T13:22:21;5.43;;;2.20;;
44850;SDS011;30583;48.714;9.386;2023-04-15T13:24:47;4.97;;;2.10;;
44850;SDS011;30583;48.714;9.386;2023-04-15T13:27:12;4.10;;;2.08;;
44850;SDS011;30583;48.714;9.386;2023-04-15T13:29:38;5.50;;;2.53;;
44850;SDS011;30583;48.714;9.386;2023-04-15T13:32:04;3.30;;;1.90;;
44850;SDS011;30583;48.714;9.386;2023-04-15T13:34:30;4.68;;;2.13;;
44850;SDS011;30583;48.714;9.386;2023-04-15T13:36:56;6.38;;;2.50;;
44850;SDS011;30583;48.714;9.386;2023-04-15T13:39:21;3.58;;;2.10;;
44850;SDS011;30583;48.714;9.386;2023-04-15T13:41:47;5.63;;;2.17;;
44850;SDS011;30583;48.714;9.386;2023-04-15T13:44:12;5.00;;;2.20;;
44850;SDS011;30583;48.714;9.386;2023-04-15T13:46:38;4.43;;;2.08;;
44850;SDS011;30583;48.714;9.386;2023-04-15T13:49:06;4.68;;;1.80;;
44850;SDS011;30583;48.714;9.386;2023-04-15T13:51:31;3.75;;;1.70;;
44850;SDS011;30583;48.714;9.386;2023-04-15T13:53:57;3.30;;;1.40;;
44850;SDS011;30583;48.714;9.386;2023-04-15T13:56:22;4.30;;;1.65;;
44850;SDS011;30583;48.714;9.386;2023-04-15T13:58:48;3.83;;;1.90;;
44850;SDS011;30583;48.714;9.386;2023-04-15T14:01:14;6.85;;;3.05;;
44850;SDS011;30583;48.714;9.386;2023-04-15T14:03:40;5.28;;;2.13;;
44850;SDS011;30583;48.714;9.386;2023-04-15T14:06:05;3.92;;;1.80;;
44850;SDS011;30583;48.714;9.386;2023-04-15T14:08:31;3.45;;;1.70;;
44850;SDS011;30583;48.714;9.386;2023-04-15T14:10:57;5.90;;;2.08;;
44850;SDS011;30583;48.714;9.386;2023-04-15T14:13:23;4.22;;;2.40;;
44850;SDS011;30583;48.714;9.386;2023-04-15T14:15:48;3.83;;;1.58;;
44850;SDS011;30583;48.714;9.386;2023-04-15T14:18:14;6.75;;;2.67;;
44850;SDS011;30583;48.714;9.386;2023-04-15T14:20:40;1.98;;;1.00;;
44850;SDS011;30583;48.714;9.386;2023-04-15T14:23:05;0.80;;;0.70;;
44850;SDS011;30583;48.714;9.386;2023-04-15T14:25:31;2.80;;;1.10;;
44850;SDS011;30583;48.714;9.386;2023-04-15T14:27:56;1.30;;;0.80;;
44850;SDS011;30583;48.714;9.386;2023-04-15T14:30:22;2.28;;;0.98;;
44850;SDS011;30583;48.714;9.386;2023-04-15T14:32:47;2.13;;;1.10;;
44850;SDS011;30583;48.714;9.386;2023-04-15T14:35:13;2.38;;;1.15;;
44850;SDS011;30583;48.714;9.386;2023-04-15T14:37:39;2.85;;;1.10;;
44850;SDS011;30583;48.714;9.386;2023-04-15T14:40:04;2.95;;;1.40;;
44850;SDS011;30583;48.714;9.386;2023-04-15T14:42:31;3.03;;;1.40;;
44850;SDS011;30583;48.714;9.386;2023-04-15T14:44:56;4.28;;;1.10;;
44850;SDS011;30583;48.714;9.386;2023-04-15T14:47:22;4.13;;;1.60;;
44850;SDS011;30583;48.714;9.386;2023-04-15T14:49:48;8.43;;;3.15;;